Richland, Michigan
Current Conditions -  °F | °C
As of 4:53 AM on Tuesday 21 Oct 2014 (Local Time) from KAZO Reporting Station
Light Rain Light Rain  
Wind Chill: 43°   Ceiling: 1700
Heat Index: 47°   Visibility: 9mi
Dew Point: 42°   Wind: 9mph
Humidity: 83%   Direction: 340°NNW
Pressure: 29.96"   Gusts: NA
Location:  42.38°N, 85.46°W
Report Text: KAZO 210853Z AUTO 34008KT 9SM -RA OVC017 08/06 A2996 RMK AO2 RAB30 SLP149 P0000 60000 T00830056 53007
Loading
Personal Weather Stations






























Interactive Weather Map
Tropical Storm Tracking
New forecast layout! Learn more

10-Day Weather Forecast

Advertisements
Track Severe Weather on mobile